sensor_id;sensor_type;location;lat;lon;timestamp;P1;durP1;ratioP1;P2;durP2;ratioP2
22064;SDS011;11197;53.110;8.468;2022-10-28T00:01:01;19.35;;;6.32;;
22064;SDS011;11197;53.110;8.468;2022-10-28T00:03:31;12.90;;;6.28;;
22064;SDS011;11197;53.110;8.468;2022-10-28T00:06:05;14.02;;;6.25;;
22064;SDS011;11197;53.110;8.468;2022-10-28T00:08:33;11.35;;;6.00;;
22064;SDS011;11197;53.110;8.468;2022-10-28T00:13:32;10.32;;;6.25;;
22064;SDS011;11197;53.110;8.468;2022-10-28T00:16:03;12.15;;;6.53;;
22064;SDS011;11197;53.110;8.468;2022-10-28T00:18:34;14.40;;;6.72;;
22064;SDS011;11197;53.110;8.468;2022-10-28T00:21:01;16.25;;;6.93;;
22064;SDS011;11197;53.110;8.468;2022-10-28T00:23:30;15.15;;;6.90;;
22064;SDS011;11197;53.110;8.468;2022-10-28T00:26:02;18.15;;;6.60;;
22064;SDS011;11197;53.110;8.468;2022-10-28T00:28:52;13.88;;;6.80;;
22064;SDS011;11197;53.110;8.468;2022-10-28T00:31:23;12.98;;;6.85;;
22064;SDS011;11197;53.110;8.468;2022-10-28T00:33:50;19.20;;;6.93;;
22064;SDS011;11197;53.110;8.468;2022-10-28T00:36:18;11.82;;;7.03;;
22064;SDS011;11197;53.110;8.468;2022-10-28T00:38:49;13.43;;;7.15;;
22064;SDS011;11197;53.110;8.468;2022-10-28T00:41:18;14.75;;;6.70;;
22064;SDS011;11197;53.110;8.468;2022-10-28T00:43:50;13.23;;;7.13;;
22064;SDS011;11197;53.110;8.468;2022-10-28T00:46:29;12.38;;;6.65;;
22064;SDS011;11197;53.110;8.468;2022-10-28T00:49:19;11.77;;;6.80;;
22064;SDS011;11197;53.110;8.468;2022-10-28T00:51:51;14.25;;;6.50;;
22064;SDS011;11197;53.110;8.468;2022-10-28T00:54:19;15.03;;;6.83;;
22064;SDS011;11197;53.110;8.468;2022-10-28T00:56:47;15.73;;;6.55;;
22064;SDS011;11197;53.110;8.468;2022-10-28T00:59:23;14.02;;;6.60;;
22064;SDS011;11197;53.110;8.468;2022-10-28T01:01:52;12.93;;;6.50;;
22064;SDS011;11197;53.110;8.468;2022-10-28T01:04:18;14.57;;;6.70;;
22064;SDS011;11197;53.110;8.468;2022-10-28T01:06:46;12.68;;;6.95;;
22064;SDS011;11197;53.110;8.468;2022-10-28T01:09:13;16.38;;;7.15;;
22064;SDS011;11197;53.110;8.468;2022-10-28T01:11:43;12.60;;;6.40;;
22064;SDS011;11197;53.110;8.468;2022-10-28T01:14:40;14.93;;;6.28;;
22064;SDS011;11197;53.110;8.468;2022-10-28T01:31:24;13.50;;;6.65;;
22064;SDS011;11197;53.110;8.468;2022-10-28T01:34:17;9.20;;;5.68;;
22064;SDS011;11197;53.110;8.468;2022-10-28T01:39:56;11.98;;;5.80;;
22064;SDS011;11197;53.110;8.468;2022-10-28T01:45:20;9.25;;;5.65;;
22064;SDS011;11197;53.110;8.468;2022-10-28T01:48:04;8.57;;;5.40;;
22064;SDS011;11197;53.110;8.468;2022-10-28T01:53:10;9.93;;;5.28;;
22064;SDS011;11197;53.110;8.468;2022-10-28T01:55:41;9.80;;;6.18;;
22064;SDS011;11197;53.110;8.468;2022-10-28T01:58:10;12.05;;;5.97;;
22064;SDS011;11197;53.110;8.468;2022-10-28T02:00:39;10.00;;;5.50;;
22064;SDS011;11197;53.110;8.468;2022-10-28T02:03:08;8.35;;;5.38;;
22064;SDS011;11197;53.110;8.468;2022-10-28T02:16:46;14.38;;;6.15;;
22064;SDS011;11197;53.110;8.468;2022-10-28T02:19:30;11.80;;;5.70;;
22064;SDS011;11197;53.110;8.468;2022-10-28T02:25:00;8.18;;;5.05;;
22064;SDS011;11197;53.110;8.468;2022-10-28T02:27:42;7.90;;;5.13;;
22064;SDS011;11197;53.110;8.468;2022-10-28T02:32:47;9.23;;;5.28;;
22064;SDS011;11197;53.110;8.468;2022-10-28T02:35:18;11.70;;;5.28;;
22064;SDS011;11197;53.110;8.468;2022-10-28T02:37:49;11.13;;;5.72;;
22064;SDS011;11197;53.110;8.468;2022-10-28T02:40:19;8.85;;;5.32;;
22064;SDS011;11197;53.110;8.468;2022-10-28T02:42:49;11.10;;;5.82;;
22064;SDS011;11197;53.110;8.468;2022-10-28T02:45:24;10.02;;;5.90;;
22064;SDS011;11197;53.110;8.468;2022-10-28T02:53:14;9.18;;;4.95;;
22064;SDS011;11197;53.110;8.468;2022-10-28T02:55:51;9.75;;;5.75;;
22064;SDS011;11197;53.110;8.468;2022-10-28T02:58:21;9.82;;;5.65;;
22064;SDS011;11197;53.110;8.468;2022-10-28T03:00:47;8.48;;;5.20;;
22064;SDS011;11197;53.110;8.468;2022-10-28T03:03:15;10.48;;;5.47;;
22064;SDS011;11197;53.110;8.468;2022-10-28T03:05:41;10.55;;;5.32;;
22064;SDS011;11197;53.110;8.468;2022-10-28T03:08:08;10.82;;;5.70;;
22064;SDS011;11197;53.110;8.468;2022-10-28T03:10:35;10.40;;;6.00;;
22064;SDS011;11197;53.110;8.468;2022-10-28T03:13:01;8.98;;;5.55;;
22064;SDS011;11197;53.110;8.468;2022-10-28T03:15:27;10.20;;;5.43;;
22064;SDS011;11197;53.110;8.468;2022-10-28T03:17:53;8.55;;;5.25;;
22064;SDS011;11197;53.110;8.468;2022-10-28T03:20:19;11.90;;;6.10;;
22064;SDS011;11197;53.110;8.468;2022-10-28T03:22:45;9.07;;;5.65;;
22064;SDS011;11197;53.110;8.468;2022-10-28T03:25:11;8.95;;;5.55;;
22064;SDS011;11197;53.110;8.468;2022-10-28T03:27:40;11.55;;;5.70;;
22064;SDS011;11197;53.110;8.468;2022-10-28T03:30:06;9.32;;;6.00;;
22064;SDS011;11197;53.110;8.468;2022-10-28T03:32:32;11.05;;;5.80;;
22064;SDS011;11197;53.110;8.468;2022-10-28T03:34:58;10.43;;;5.90;;
22064;SDS011;11197;53.110;8.468;2022-10-28T03:37:25;8.80;;;5.30;;
22064;SDS011;11197;53.110;8.468;2022-10-28T03:39:51;8.77;;;4.97;;
22064;SDS011;11197;53.110;8.468;2022-10-28T03:42:17;9.07;;;5.45;;
22064;SDS011;11197;53.110;8.468;2022-10-28T03:44:43;13.52;;;6.43;;
22064;SDS011;11197;53.110;8.468;2022-10-28T03:47:09;12.68;;;5.82;;
22064;SDS011;11197;53.110;8.468;2022-10-28T03:49:35;10.77;;;5.85;;
22064;SDS011;11197;53.110;8.468;2022-10-28T03:52:01;11.07;;;5.40;;
22064;SDS011;11197;53.110;8.468;2022-10-28T03:54:28;7.93;;;5.00;;
22064;SDS011;11197;53.110;8.468;2022-10-28T03:56:54;8.73;;;4.63;;
22064;SDS011;11197;53.110;8.468;2022-10-28T03:59:20;10.13;;;5.57;;
22064;SDS011;11197;53.110;8.468;2022-10-28T04:01:47;8.73;;;5.07;;
22064;SDS011;11197;53.110;8.468;2022-10-28T04:04:13;10.23;;;5.32;;
22064;SDS011;11197;53.110;8.468;2022-10-28T04:06:39;8.50;;;5.10;;
22064;SDS011;11197;53.110;8.468;2022-10-28T04:09:05;7.45;;;4.70;;
22064;SDS011;11197;53.110;8.468;2022-10-28T04:11:33;9.50;;;5.15;;
22064;SDS011;11197;53.110;8.468;2022-10-28T04:14:00;6.60;;;4.35;;
22064;SDS011;11197;53.110;8.468;2022-10-28T04:16:26;12.82;;;5.32;;
22064;SDS011;11197;53.110;8.468;2022-10-28T04:18:52;8.13;;;4.88;;
22064;SDS011;11197;53.110;8.468;2022-10-28T04:21:19;7.75;;;4.85;;
22064;SDS011;11197;53.110;8.468;2022-10-28T04:23:45;8.05;;;4.68;;
22064;SDS011;11197;53.110;8.468;2022-10-28T04:26:11;10.38;;;5.40;;
22064;SDS011;11197;53.110;8.468;2022-10-28T04:28:38;8.15;;;4.70;;
22064;SDS011;11197;53.110;8.468;2022-10-28T04:31:04;8.18;;;4.80;;
22064;SDS011;11197;53.110;8.468;2022-10-28T04:33:30;7.50;;;4.88;;
22064;SDS011;11197;53.110;8.468;2022-10-28T04:38:25;8.25;;;5.22;;
22064;SDS011;11197;53.110;8.468;2022-10-28T04:40:53;7.55;;;4.30;;
22064;SDS011;11197;53.110;8.468;2022-10-28T04:43:19;8.98;;;4.97;;
22064;SDS011;11197;53.110;8.468;2022-10-28T04:45:48;7.38;;;4.53;;
22064;SDS011;11197;53.110;8.468;2022-10-28T04:48:14;10.80;;;5.30;;
22064;SDS011;11197;53.110;8.468;2022-10-28T04:50:40;7.80;;;4.78;;
22064;SDS011;11197;53.110;8.468;2022-10-28T04:53:10;9.68;;;5.15;;
22064;SDS011;11197;53.110;8.468;2022-10-28T04:55:37;7.53;;;4.78;;
22064;SDS011;11197;53.110;8.468;2022-10-28T04:58:03;6.95;;;4.63;;
22064;SDS011;11197;53.110;8.468;2022-10-28T05:00:29;6.93;;;4.72;;
22064;SDS011;11197;53.110;8.468;2022-10-28T05:02:55;8.30;;;4.63;;
22064;SDS011;11197;53.110;8.468;2022-10-28T05:05:24;8.95;;;4.80;;
22064;SDS011;11197;53.110;8.468;2022-10-28T05:07:54;6.95;;;4.50;;
22064;SDS011;11197;53.110;8.468;2022-10-28T05:10:20;8.57;;;4.57;;
22064;SDS011;11197;53.110;8.468;2022-10-28T05:12:45;10.27;;;4.75;;
22064;SDS011;11197;53.110;8.468;2022-10-28T05:15:12;6.90;;;4.30;;
22064;SDS011;11197;53.110;8.468;2022-10-28T05:17:42;9.50;;;4.50;;
22064;SDS011;11197;53.110;8.468;2022-10-28T05:20:10;11.15;;;4.45;;
22064;SDS011;11197;53.110;8.468;2022-10-28T05:22:40;6.43;;;4.13;;
22064;SDS011;11197;53.110;8.468;2022-10-28T05:25:14;6.25;;;4.35;;
22064;SDS011;11197;53.110;8.468;2022-10-28T05:27:41;6.13;;;4.07;;
22064;SDS011;11197;53.110;8.468;2022-10-28T05:30:07;8.50;;;4.25;;
22064;SDS011;11197;53.110;8.468;2022-10-28T05:32:34;7.78;;;3.72;;
22064;SDS011;11197;53.110;8.468;2022-10-28T05:35:00;7.43;;;4.57;;
22064;SDS011;11197;53.110;8.468;2022-10-28T05:37:27;9.88;;;4.57;;
22064;SDS011;11197;53.110;8.468;2022-10-28T05:39:56;8.27;;;4.53;;
22064;SDS011;11197;53.110;8.468;2022-10-28T05:42:22;8.32;;;4.45;;
22064;SDS011;11197;53.110;8.468;2022-10-28T05:44:48;8.63;;;4.95;;
22064;SDS011;11197;53.110;8.468;2022-10-28T05:47:14;9.88;;;4.32;;
22064;SDS011;11197;53.110;8.468;2022-10-28T05:49:40;11.52;;;5.65;;
22064;SDS011;11197;53.110;8.468;2022-10-28T05:52:07;9.88;;;5.18;;
22064;SDS011;11197;53.110;8.468;2022-10-28T05:54:33;10.02;;;5.18;;
22064;SDS011;11197;53.110;8.468;2022-10-28T05:56:59;9.00;;;5.82;;
22064;SDS011;11197;53.110;8.468;2022-10-28T05:59:25;9.52;;;5.65;;
22064;SDS011;11197;53.110;8.468;2022-10-28T06:01:51;9.93;;;5.95;;
22064;SDS011;11197;53.110;8.468;2022-10-28T06:04:18;10.00;;;5.57;;
22064;SDS011;11197;53.110;8.468;2022-10-28T06:06:44;10.32;;;6.00;;
22064;SDS011;11197;53.110;8.468;2022-10-28T06:09:11;11.65;;;5.78;;
22064;SDS011;11197;53.110;8.468;2022-10-28T06:11:37;11.55;;;6.05;;
22064;SDS011;11197;53.110;8.468;2022-10-28T06:14:03;9.68;;;5.30;;
22064;SDS011;11197;53.110;8.468;2022-10-28T06:16:29;8.40;;;5.40;;
22064;SDS011;11197;53.110;8.468;2022-10-28T06:18:55;12.20;;;6.18;;
22064;SDS011;11197;53.110;8.468;2022-10-28T06:21:21;12.07;;;7.05;;
22064;SDS011;11197;53.110;8.468;2022-10-28T06:23:47;10.32;;;6.35;;
22064;SDS011;11197;53.110;8.468;2022-10-28T06:26:13;9.60;;;6.65;;
22064;SDS011;11197;53.110;8.468;2022-10-28T06:28:39;10.73;;;5.82;;
22064;SDS011;11197;53.110;8.468;2022-10-28T06:31:06;11.27;;;6.22;;
22064;SDS011;11197;53.110;8.468;2022-10-28T06:36:02;11.95;;;6.97;;
22064;SDS011;11197;53.110;8.468;2022-10-28T06:38:28;11.75;;;6.68;;
22064;SDS011;11197;53.110;8.468;2022-10-28T06:40:56;10.90;;;6.88;;
22064;SDS011;11197;53.110;8.468;2022-10-28T06:43:23;9.93;;;6.43;;
22064;SDS011;11197;53.110;8.468;2022-10-28T06:45:50;15.45;;;7.05;;
22064;SDS011;11197;53.110;8.468;2022-10-28T06:48:20;14.65;;;7.22;;
22064;SDS011;11197;53.110;8.468;2022-10-28T06:50:47;12.07;;;6.82;;
22064;SDS011;11197;53.110;8.468;2022-10-28T06:53:13;11.63;;;6.68;;
22064;SDS011;11197;53.110;8.468;2022-10-28T06:55:39;11.98;;;6.40;;
22064;SDS011;11197;53.110;8.468;2022-10-28T06:58:07;13.45;;;6.85;;
22064;SDS011;11197;53.110;8.468;2022-10-28T07:00:34;11.32;;;7.45;;
22064;SDS011;11197;53.110;8.468;2022-10-28T07:03:01;11.98;;;6.57;;
22064;SDS011;11197;53.110;8.468;2022-10-28T07:05:28;14.18;;;7.75;;
22064;SDS011;11197;53.110;8.468;2022-10-28T07:07:54;12.70;;;7.00;;
22064;SDS011;11197;53.110;8.468;2022-10-28T07:10:21;10.75;;;7.30;;
22064;SDS011;11197;53.110;8.468;2022-10-28T07:12:47;16.23;;;7.70;;
22064;SDS011;11197;53.110;8.468;2022-10-28T07:15:14;15.93;;;7.15;;
22064;SDS011;11197;53.110;8.468;2022-10-28T07:17:40;14.00;;;7.47;;
22064;SDS011;11197;53.110;8.468;2022-10-28T07:20:06;11.48;;;7.25;;
22064;SDS011;11197;53.110;8.468;2022-10-28T07:22:33;13.65;;;7.45;;
22064;SDS011;11197;53.110;8.468;2022-10-28T07:24:59;15.48;;;7.00;;
22064;SDS011;11197;53.110;8.468;2022-10-28T07:27:25;17.23;;;7.60;;
22064;SDS011;11197;53.110;8.468;2022-10-28T07:29:51;15.93;;;7.65;;
22064;SDS011;11197;53.110;8.468;2022-10-28T07:32:19;15.82;;;7.35;;
22064;SDS011;11197;53.110;8.468;2022-10-28T07:34:46;18.27;;;7.55;;
22064;SDS011;11197;53.110;8.468;2022-10-28T07:37:12;13.13;;;6.05;;
22064;SDS011;11197;53.110;8.468;2022-10-28T07:39:39;14.25;;;6.57;;
22064;SDS011;11197;53.110;8.468;2022-10-28T07:42:04;19.08;;;7.38;;
22064;SDS011;11197;53.110;8.468;2022-10-28T07:44:30;15.48;;;7.32;;
22064;SDS011;11197;53.110;8.468;2022-10-28T07:46:56;21.30;;;6.90;;
22064;SDS011;11197;53.110;8.468;2022-10-28T07:49:22;18.50;;;7.55;;
22064;SDS011;11197;53.110;8.468;2022-10-28T07:51:49;22.17;;;7.22;;
22064;SDS011;11197;53.110;8.468;2022-10-28T07:54:15;13.90;;;6.68;;
22064;SDS011;11197;53.110;8.468;2022-10-28T07:56:41;11.77;;;6.70;;
22064;SDS011;11197;53.110;8.468;2022-10-28T07:59:07;13.68;;;6.85;;
22064;SDS011;11197;53.110;8.468;2022-10-28T08:01:34;17.08;;;6.22;;
22064;SDS011;11197;53.110;8.468;2022-10-28T08:04:00;15.45;;;6.18;;
22064;SDS011;11197;53.110;8.468;2022-10-28T08:06:26;17.33;;;6.75;;
22064;SDS011;11197;53.110;8.468;2022-10-28T08:08:53;18.52;;;6.45;;
22064;SDS011;11197;53.110;8.468;2022-10-28T08:11:20;20.63;;;6.78;;
22064;SDS011;11197;53.110;8.468;2022-10-28T08:13:48;16.23;;;6.05;;
22064;SDS011;11197;53.110;8.468;2022-10-28T08:16:15;15.35;;;6.28;;
22064;SDS011;11197;53.110;8.468;2022-10-28T08:18:41;17.58;;;6.43;;
22064;SDS011;11197;53.110;8.468;2022-10-28T08:21:08;12.85;;;5.72;;
22064;SDS011;11197;53.110;8.468;2022-10-28T08:23:35;14.93;;;5.90;;
22064;SDS011;11197;53.110;8.468;2022-10-28T08:26:03;12.50;;;6.00;;
22064;SDS011;11197;53.110;8.468;2022-10-28T08:28:30;16.40;;;6.10;;
22064;SDS011;11197;53.110;8.468;2022-10-28T08:30:59;12.50;;;5.20;;
22064;SDS011;11197;53.110;8.468;2022-10-28T08:33:26;12.90;;;5.90;;
22064;SDS011;11197;53.110;8.468;2022-10-28T08:35:55;14.07;;;5.70;;
22064;SDS011;11197;53.110;8.468;2022-10-28T08:38:21;13.13;;;5.50;;
22064;SDS011;11197;53.110;8.468;2022-10-28T08:46:21;18.08;;;5.35;;
22064;SDS011;11197;53.110;8.468;2022-10-28T08:48:52;11.65;;;5.30;;
22064;SDS011;11197;53.110;8.468;2022-10-28T08:51:21;14.90;;;5.03;;
22064;SDS011;11197;53.110;8.468;2022-10-28T08:53:59;12.88;;;5.40;;
22064;SDS011;11197;53.110;8.468;2022-10-28T08:56:41;16.58;;;5.38;;
22064;SDS011;11197;53.110;8.468;2022-10-28T08:59:17;16.52;;;5.55;;
22064;SDS011;11197;53.110;8.468;2022-10-28T09:01:58;14.77;;;5.40;;
22064;SDS011;11197;53.110;8.468;2022-10-28T09:04:34;18.60;;;5.38;;
22064;SDS011;11197;53.110;8.468;2022-10-28T09:07:16;13.50;;;4.78;;
22064;SDS011;11197;53.110;8.468;2022-10-28T09:09:45;14.00;;;4.93;;
22064;SDS011;11197;53.110;8.468;2022-10-28T09:15:02;19.20;;;5.10;;
22064;SDS011;11197;53.110;8.468;2022-10-28T09:20:20;13.98;;;5.40;;
22064;SDS011;11197;53.110;8.468;2022-10-28T09:22:59;15.48;;;5.10;;
22064;SDS011;11197;53.110;8.468;2022-10-28T09:31:05;12.13;;;5.03;;
22064;SDS011;11197;53.110;8.468;2022-10-28T09:36:33;10.82;;;4.68;;
22064;SDS011;11197;53.110;8.468;2022-10-28T09:39:15;20.70;;;5.30;;
22064;SDS011;11197;53.110;8.468;2022-10-28T09:44:40;16.73;;;5.40;;
22064;SDS011;11197;53.110;8.468;2022-10-28T09:47:17;11.57;;;4.93;;
22064;SDS011;11197;53.110;8.468;2022-10-28T09:49:50;16.95;;;5.07;;
22064;SDS011;11197;53.110;8.468;2022-10-28T09:52:26;17.80;;;5.05;;
22064;SDS011;11197;53.110;8.468;2022-10-28T09:54:59;13.18;;;5.10;;
22064;SDS011;11197;53.110;8.468;2022-10-28T09:57:37;13.88;;;4.75;;
22064;SDS011;11197;53.110;8.468;2022-10-28T10:00:04;20.85;;;5.28;;
22064;SDS011;11197;53.110;8.468;2022-10-28T10:02:51;20.58;;;4.75;;
22064;SDS011;11197;53.110;8.468;2022-10-28T10:05:24;17.70;;;5.15;;
22064;SDS011;11197;53.110;8.468;2022-10-28T10:07:52;15.73;;;5.18;;
22064;SDS011;11197;53.110;8.468;2022-10-28T10:10:21;18.40;;;5.15;;
22064;SDS011;11197;53.110;8.468;2022-10-28T10:12:48;18.33;;;5.03;;
22064;SDS011;11197;53.110;8.468;2022-10-28T10:15:19;13.55;;;4.97;;
22064;SDS011;11197;53.110;8.468;2022-10-28T10:18:11;16.48;;;4.72;;
22064;SDS011;11197;53.110;8.468;2022-10-28T10:20:45;13.75;;;4.88;;
22064;SDS011;11197;53.110;8.468;2022-10-28T10:23:22;13.32;;;4.50;;
22064;SDS011;11197;53.110;8.468;2022-10-28T10:25:54;17.15;;;5.05;;
22064;SDS011;11197;53.110;8.468;2022-10-28T10:28:22;17.40;;;4.85;;
22064;SDS011;11197;53.110;8.468;2022-10-28T10:30:51;19.02;;;4.90;;
22064;SDS011;11197;53.110;8.468;2022-10-28T10:33:27;14.13;;;4.68;;
22064;SDS011;11197;53.110;8.468;2022-10-28T10:38:36;17.88;;;4.90;;
22064;SDS011;11197;53.110;8.468;2022-10-28T10:41:10;16.90;;;4.60;;
22064;SDS011;11197;53.110;8.468;2022-10-28T10:43:36;16.77;;;4.85;;
22064;SDS011;11197;53.110;8.468;2022-10-28T10:46:14;18.33;;;5.13;;
22064;SDS011;11197;53.110;8.468;2022-10-28T10:48:42;14.98;;;4.70;;
22064;SDS011;11197;53.110;8.468;2022-10-28T10:51:16;16.30;;;4.43;;
22064;SDS011;11197;53.110;8.468;2022-10-28T10:53:48;15.63;;;4.40;;
22064;SDS011;11197;53.110;8.468;2022-10-28T10:56:23;16.75;;;4.72;;
22064;SDS011;11197;53.110;8.468;2022-10-28T10:58:56;12.75;;;4.57;;
22064;SDS011;11197;53.110;8.468;2022-10-28T11:01:27;11.90;;;4.28;;
22064;SDS011;11197;53.110;8.468;2022-10-28T11:04:02;18.05;;;5.25;;
22064;SDS011;11197;53.110;8.468;2022-10-28T11:06:39;16.30;;;4.60;;
22064;SDS011;11197;53.110;8.468;2022-10-28T11:11:46;19.90;;;4.45;;
22064;SDS011;11197;53.110;8.468;2022-10-28T11:16:48;17.52;;;4.78;;
22064;SDS011;11197;53.110;8.468;2022-10-28T11:29:56;16.85;;;4.75;;
22064;SDS011;11197;53.110;8.468;2022-10-28T11:32:44;14.48;;;3.90;;
22064;SDS011;11197;53.110;8.468;2022-10-28T11:41:08;11.35;;;4.13;;
22064;SDS011;11197;53.110;8.468;2022-10-28T11:43:45;16.10;;;4.15;;
22064;SDS011;11197;53.110;8.468;2022-10-28T11:46:22;13.57;;;3.72;;
22064;SDS011;11197;53.110;8.468;2022-10-28T11:48:58;13.88;;;4.32;;
22064;SDS011;11197;53.110;8.468;2022-10-28T12:11:02;14.75;;;4.30;;
22064;SDS011;11197;53.110;8.468;2022-10-28T12:19:12;19.10;;;4.10;;
22064;SDS011;11197;53.110;8.468;2022-10-28T12:24:52;18.50;;;4.63;;
22064;SDS011;11197;53.110;8.468;2022-10-28T12:27:25;16.00;;;4.82;;
22064;SDS011;11197;53.110;8.468;2022-10-28T12:29:58;14.45;;;4.25;;
22064;SDS011;11197;53.110;8.468;2022-10-28T12:32:51;18.77;;;5.00;;
22064;SDS011;11197;53.110;8.468;2022-10-28T12:36:39;17.85;;;4.20;;
22064;SDS011;11197;53.110;8.468;2022-10-28T12:38:37;11.60;;;3.90;;
22064;SDS011;11197;53.110;8.468;2022-10-28T12:41:14;14.52;;;3.95;;
22064;SDS011;11197;53.110;8.468;2022-10-28T12:43:54;18.75;;;3.65;;
22064;SDS011;11197;53.110;8.468;2022-10-28T12:49:22;18.95;;;3.90;;
22064;SDS011;11197;53.110;8.468;2022-10-28T12:52:01;11.88;;;4.05;;
22064;SDS011;11197;53.110;8.468;2022-10-28T12:54:51;18.80;;;4.25;;
22064;SDS011;11197;53.110;8.468;2022-10-28T12:57:24;11.95;;;3.80;;
22064;SDS011;11197;53.110;8.468;2022-10-28T13:00:16;15.55;;;4.07;;
22064;SDS011;11197;53.110;8.468;2022-10-28T13:05:20;14.25;;;3.72;;
22064;SDS011;11197;53.110;8.468;2022-10-28T13:10:47;14.20;;;3.88;;
22064;SDS011;11197;53.110;8.468;2022-10-28T13:16:30;13.35;;;3.97;;
22064;SDS011;11197;53.110;8.468;2022-10-28T13:24:19;17.25;;;4.32;;
22064;SDS011;11197;53.110;8.468;2022-10-28T13:26:49;16.15;;;4.15;;
22064;SDS011;11197;53.110;8.468;2022-10-28T13:29:23;14.50;;;4.35;;
22064;SDS011;11197;53.110;8.468;2022-10-28T13:31:59;16.42;;;4.32;;
22064;SDS011;11197;53.110;8.468;2022-10-28T13:34:32;18.27;;;4.00;;
22064;SDS011;11197;53.110;8.468;2022-10-28T13:37:02;14.02;;;4.38;;
22064;SDS011;11197;53.110;8.468;2022-10-28T13:44:58;14.68;;;4.38;;
22064;SDS011;11197;53.110;8.468;2022-10-28T13:52:31;17.67;;;4.15;;
22064;SDS011;11197;53.110;8.468;2022-10-28T13:55:00;12.60;;;4.45;;
22064;SDS011;11197;53.110;8.468;2022-10-28T13:57:47;14.93;;;3.95;;
22064;SDS011;11197;53.110;8.468;2022-10-28T14:02:52;15.13;;;4.60;;
22064;SDS011;11197;53.110;8.468;2022-10-28T14:08:03;14.60;;;4.60;;
22064;SDS011;11197;53.110;8.468;2022-10-28T14:10:55;13.40;;;4.47;;
22064;SDS011;11197;53.110;8.468;2022-10-28T14:13:33;16.30;;;3.95;;
22064;SDS011;11197;53.110;8.468;2022-10-28T14:19:13;14.13;;;4.15;;
22064;SDS011;11197;53.110;8.468;2022-10-28T14:21:59;17.55;;;4.25;;
22064;SDS011;11197;53.110;8.468;2022-10-28T14:29:42;13.68;;;4.00;;
22064;SDS011;11197;53.110;8.468;2022-10-28T14:32:39;14.45;;;3.97;;
22064;SDS011;11197;53.110;8.468;2022-10-28T14:43:26;15.45;;;4.28;;
22064;SDS011;11197;53.110;8.468;2022-10-28T14:46:24;16.55;;;4.03;;
22064;SDS011;11197;53.110;8.468;2022-10-28T14:49:25;14.93;;;4.30;;
22064;SDS011;11197;53.110;8.468;2022-10-28T14:51:54;17.02;;;4.47;;
22064;SDS011;11197;53.110;8.468;2022-10-28T14:54:28;16.45;;;4.65;;
22064;SDS011;11197;53.110;8.468;2022-10-28T14:57:02;14.27;;;4.03;;
22064;SDS011;11197;53.110;8.468;2022-10-28T14:59:35;12.45;;;4.40;;
22064;SDS011;11197;53.110;8.468;2022-10-28T15:07:36;16.50;;;4.70;;
22064;SDS011;11197;53.110;8.468;2022-10-28T15:10:17;16.33;;;4.60;;
22064;SDS011;11197;53.110;8.468;2022-10-28T15:12:47;16.63;;;4.30;;
22064;SDS011;11197;53.110;8.468;2022-10-28T15:15:24;12.82;;;4.30;;
22064;SDS011;11197;53.110;8.468;2022-10-28T15:17:52;11.48;;;4.10;;
22064;SDS011;11197;53.110;8.468;2022-10-28T15:28:41;24.13;;;4.90;;
22064;SDS011;11197;53.110;8.468;2022-10-28T15:31:08;18.13;;;4.88;;
22064;SDS011;11197;53.110;8.468;2022-10-28T15:33:38;15.13;;;4.30;;
22064;SDS011;11197;53.110;8.468;2022-10-28T15:36:08;17.73;;;4.57;;
22064;SDS011;11197;53.110;8.468;2022-10-28T15:41:47;19.33;;;4.55;;
22064;SDS011;11197;53.110;8.468;2022-10-28T15:46:51;18.92;;;4.95;;
22064;SDS011;11197;53.110;8.468;2022-10-28T15:49:38;13.82;;;4.28;;
22064;SDS011;11197;53.110;8.468;2022-10-28T15:57:28;13.30;;;4.72;;
22064;SDS011;11197;53.110;8.468;2022-10-28T16:00:17;16.65;;;4.55;;
22064;SDS011;11197;53.110;8.468;2022-10-28T16:02:50;21.95;;;4.55;;
22064;SDS011;11197;53.110;8.468;2022-10-28T16:08:06;17.88;;;4.88;;
22064;SDS011;11197;53.110;8.468;2022-10-28T16:10:55;21.48;;;5.10;;
22064;SDS011;11197;53.110;8.468;2022-10-28T16:16:04;18.35;;;5.07;;
22064;SDS011;11197;53.110;8.468;2022-10-28T16:18:50;15.80;;;4.18;;
22064;SDS011;11197;53.110;8.468;2022-10-28T16:21:26;13.10;;;4.60;;
22064;SDS011;11197;53.110;8.468;2022-10-28T16:23:53;13.48;;;4.35;;
22064;SDS011;11197;53.110;8.468;2022-10-28T16:26:25;19.35;;;4.82;;
22064;SDS011;11197;53.110;8.468;2022-10-28T16:28:52;18.60;;;5.07;;
22064;SDS011;11197;53.110;8.468;2022-10-28T16:31:20;18.50;;;5.22;;
22064;SDS011;11197;53.110;8.468;2022-10-28T16:33:49;16.92;;;4.72;;
22064;SDS011;11197;53.110;8.468;2022-10-28T16:36:15;20.50;;;5.00;;
22064;SDS011;11197;53.110;8.468;2022-10-28T16:38:42;16.15;;;4.82;;
22064;SDS011;11197;53.110;8.468;2022-10-28T16:41:17;25.92;;;10.48;;
22064;SDS011;11197;53.110;8.468;2022-10-28T16:43:44;19.23;;;8.80;;
22064;SDS011;11197;53.110;8.468;2022-10-28T16:46:11;23.55;;;10.20;;
22064;SDS011;11197;53.110;8.468;2022-10-28T16:48:38;22.05;;;10.93;;
22064;SDS011;11197;53.110;8.468;2022-10-28T16:51:05;18.23;;;9.02;;
22064;SDS011;11197;53.110;8.468;2022-10-28T16:53:43;17.73;;;7.00;;
22064;SDS011;11197;53.110;8.468;2022-10-28T16:56:16;17.90;;;6.20;;
22064;SDS011;11197;53.110;8.468;2022-10-28T16:58:42;21.70;;;6.32;;
22064;SDS011;11197;53.110;8.468;2022-10-28T17:01:09;17.77;;;5.63;;
22064;SDS011;11197;53.110;8.468;2022-10-28T17:03:36;18.05;;;5.90;;
22064;SDS011;11197;53.110;8.468;2022-10-28T17:06:02;17.10;;;5.72;;
22064;SDS011;11197;53.110;8.468;2022-10-28T17:08:28;17.67;;;5.60;;
22064;SDS011;11197;53.110;8.468;2022-10-28T17:10:54;15.82;;;5.53;;
22064;SDS011;11197;53.110;8.468;2022-10-28T17:13:22;16.73;;;5.90;;
22064;SDS011;11197;53.110;8.468;2022-10-28T17:15:50;16.67;;;5.70;;
22064;SDS011;11197;53.110;8.468;2022-10-28T17:18:18;23.65;;;6.22;;
22064;SDS011;11197;53.110;8.468;2022-10-28T17:20:46;13.95;;;5.40;;
22064;SDS011;11197;53.110;8.468;2022-10-28T17:23:12;15.32;;;5.40;;
22064;SDS011;11197;53.110;8.468;2022-10-28T17:25:39;14.82;;;5.65;;
22064;SDS011;11197;53.110;8.468;2022-10-28T17:28:05;19.77;;;6.65;;
22064;SDS011;11197;53.110;8.468;2022-10-28T17:30:32;14.45;;;5.45;;
22064;SDS011;11197;53.110;8.468;2022-10-28T17:32:59;18.73;;;6.20;;
22064;SDS011;11197;53.110;8.468;2022-10-28T17:35:25;14.98;;;5.50;;
22064;SDS011;11197;53.110;8.468;2022-10-28T17:37:52;14.05;;;5.63;;
22064;SDS011;11197;53.110;8.468;2022-10-28T17:40:18;19.92;;;6.20;;
22064;SDS011;11197;53.110;8.468;2022-10-28T17:42:44;17.33;;;6.25;;
22064;SDS011;11197;53.110;8.468;2022-10-28T17:45:11;19.02;;;5.85;;
22064;SDS011;11197;53.110;8.468;2022-10-28T17:47:37;21.13;;;6.22;;
22064;SDS011;11197;53.110;8.468;2022-10-28T17:50:04;21.85;;;6.30;;
22064;SDS011;11197;53.110;8.468;2022-10-28T17:52:31;21.02;;;6.13;;
22064;SDS011;11197;53.110;8.468;2022-10-28T17:54:57;20.10;;;6.20;;
22064;SDS011;11197;53.110;8.468;2022-10-28T17:57:23;16.67;;;5.82;;
22064;SDS011;11197;53.110;8.468;2022-10-28T17:59:49;20.65;;;6.05;;
22064;SDS011;11197;53.110;8.468;2022-10-28T18:02:16;16.75;;;6.07;;
22064;SDS011;11197;53.110;8.468;2022-10-28T18:04:42;17.10;;;6.00;;
22064;SDS011;11197;53.110;8.468;2022-10-28T18:07:08;21.20;;;6.28;;
22064;SDS011;11197;53.110;8.468;2022-10-28T18:09:34;17.65;;;6.68;;
22064;SDS011;11197;53.110;8.468;2022-10-28T18:12:00;22.33;;;6.30;;
22064;SDS011;11197;53.110;8.468;2022-10-28T18:14:27;17.52;;;6.28;;
22064;SDS011;11197;53.110;8.468;2022-10-28T18:16:54;18.02;;;6.80;;
22064;SDS011;11197;53.110;8.468;2022-10-28T18:19:20;17.23;;;6.35;;
22064;SDS011;11197;53.110;8.468;2022-10-28T18:21:46;16.25;;;6.00;;